Terminal Aerodrome Forecast
Issued by NWS Cleveland, OH

Home | Current Version | Previous Version | Graphics & Text | Print | Product List | Glossary On
Versions: 1 2 3 4 5 6 7 8 9 10 11 12
067
FTUS41 KCLE 170521
TAFMFD
TAF
KMFD 170521Z 1706/1806 18005KT P6SM SCT050
     FM171600 22010G18KT P6SM SKC
     FM172200 20009KT P6SM SKC=

USA.gov is the U.S. government's official web portal to all federal, state and local government web resources and services.